createdAt,value
2023-03-12T00:01:25.424Z,97216.97
2023-03-12T00:03:52.431Z,97221.75
2023-03-12T00:06:19.440Z,97214.94
2023-03-12T00:08:46.162Z,97220.56
2023-03-12T00:11:13.925Z,97222.75
2023-03-12T00:13:42.124Z,97220.97
2023-03-12T00:16:14.588Z,97216.97
2023-03-12T00:18:41.857Z,97224.97
2023-03-12T00:21:08.514Z,97221.50
2023-03-12T00:23:35.148Z,97224.97
2023-03-12T00:26:03.483Z,97215.47
2023-03-12T00:28:30.657Z,97221.31
2023-03-12T00:30:58.429Z,97220.88
2023-03-12T00:33:25.989Z,97213.69
2023-03-12T00:35:53.495Z,97216.91
2023-03-12T00:38:20.230Z,97220.38
2023-03-12T00:40:46.719Z,97219.34
2023-03-12T00:43:13.320Z,97214.03
2023-03-12T00:45:39.867Z,97212.44
2023-03-12T00:48:06.591Z,97216.75
2023-03-12T00:50:33.156Z,97196.28
2023-03-12T00:52:59.592Z,97196.84
2023-03-12T00:55:26.266Z,97195.50
2023-03-12T00:57:52.741Z,97191.78
2023-03-12T01:00:28.252Z,97201.28
2023-03-12T01:02:54.964Z,97210.53
2023-03-12T01:05:22.984Z,97214.03
2023-03-12T01:07:50.573Z,97192.06
2023-03-12T01:10:18.304Z,97185.16
2023-03-12T01:12:44.797Z,97189.28
2023-03-12T01:15:13.792Z,97186.56
2023-03-12T01:17:40.422Z,97180.66
2023-03-12T01:20:08.336Z,97193.38
2023-03-12T01:22:36.699Z,97191.19
2023-03-12T01:25:05.418Z,97194.91
2023-03-12T01:27:31.905Z,97196.50
2023-03-12T01:29:58.416Z,97185.63
2023-03-12T01:32:25.456Z,97185.06
2023-03-12T01:34:51.925Z,97176.06
2023-03-12T01:37:18.358Z,97172.97
2023-03-12T01:39:46.070Z,97167.03
2023-03-12T01:42:14.226Z,97159.69
2023-03-12T01:44:51.160Z,97154.91
2023-03-12T01:47:18.694Z,97154.84
2023-03-12T01:49:45.777Z,97146.97
2023-03-12T01:52:16.833Z,97147.94
2023-03-12T01:54:45.798Z,97146.47
2023-03-12T01:57:14.941Z,97140.72
2023-03-12T01:59:44.022Z,97132.78
2023-03-12T02:02:10.672Z,97134.38
2023-03-12T02:04:38.802Z,97130.13
2023-03-12T02:07:12.809Z,97121.13
2023-03-12T02:09:43.688Z,97120.50
2023-03-12T02:12:11.318Z,97117.81
2023-03-12T02:14:39.618Z,97111.81
2023-03-12T02:17:08.185Z,97113.13
2023-03-12T02:19:34.639Z,97112.09
2023-03-12T02:22:01.725Z,97099.09
2023-03-12T02:24:39.218Z,97084.41
2023-03-12T02:27:06.986Z,97087.31
2023-03-12T02:29:34.652Z,97095.63
2023-03-12T02:32:05.495Z,97097.22
2023-03-12T02:34:31.988Z,97088.19
2023-03-12T02:36:58.462Z,97086.59
2023-03-12T02:39:25.250Z,97085.91
2023-03-12T02:41:54.377Z,97085.44
2023-03-12T02:44:23.595Z,97081.22
2023-03-12T02:46:53.402Z,97082.81
2023-03-12T02:49:22.185Z,97075.56
2023-03-12T02:51:48.993Z,97076.91
2023-03-12T02:54:16.096Z,97083.31
2023-03-12T02:56:42.579Z,97080.13
2023-03-12T02:59:09.390Z,97082.78
2023-03-12T03:01:36.388Z,97090.72
2023-03-12T03:04:03.910Z,97085.59
2023-03-12T03:06:31.055Z,97078.28
2023-03-12T03:08:57.578Z,97071.69
2023-03-12T03:11:24.843Z,97057.63
2023-03-12T03:13:52.266Z,97066.88
2023-03-12T03:16:20.257Z,97042.69
2023-03-12T03:18:46.965Z,97041.41
2023-03-12T03:21:16.661Z,97038.78
2023-03-12T03:23:44.079Z,97039.38
2023-03-12T03:26:10.797Z,97040.97
2023-03-12T03:28:37.894Z,97040.47
2023-03-12T03:31:05.656Z,97036.09
2023-03-12T03:33:34.005Z,97033.28
2023-03-12T03:36:01.348Z,97033.56
2023-03-12T03:38:29.043Z,97050.59
2023-03-12T03:40:56.026Z,97052.72
2023-03-12T03:43:24.193Z,97057.69
2023-03-12T03:46:00.775Z,97070.16
2023-03-12T03:48:27.294Z,97090.97
2023-03-12T03:50:53.748Z,97105.59
2023-03-12T03:53:20.426Z,97117.53
2023-03-12T03:55:47.033Z,97140.59
2023-03-12T03:58:13.712Z,97166.63
2023-03-12T04:00:40.158Z,97180.94
2023-03-12T04:03:06.673Z,97193.63
2023-03-12T04:05:33.201Z,97223.94
2023-03-12T04:08:04.548Z,97239.84
2023-03-12T04:10:31.224Z,97258.16
2023-03-12T04:12:59.267Z,97269.81
2023-03-12T04:15:25.750Z,97288.34
2023-03-12T04:17:52.454Z,97296.84
2023-03-12T04:20:18.966Z,97299.19
2023-03-12T04:22:45.408Z,97305.84
2023-03-12T04:25:13.384Z,97323.31
2023-03-12T04:27:40.230Z,97329.13
2023-03-12T04:30:06.978Z,97340.72
2023-03-12T04:32:33.458Z,97333.28
2023-03-12T04:34:59.956Z,97352.81
2023-03-12T04:37:26.446Z,97358.63
2023-03-12T04:39:54.192Z,97365.97
2023-03-12T04:42:20.683Z,97380.00
2023-03-12T04:44:48.449Z,97385.03
2023-03-12T04:47:16.276Z,97391.25
2023-03-12T04:49:44.251Z,97404.91
2023-03-12T04:52:10.693Z,97392.72
2023-03-12T04:54:37.479Z,97402.94
2023-03-12T04:57:03.974Z,97400.00
2023-03-12T04:59:30.468Z,97394.66
2023-03-12T05:01:56.960Z,97399.94
2023-03-12T05:04:23.421Z,97404.91
2023-03-12T05:06:51.250Z,97404.06
2023-03-12T05:09:17.691Z,97414.56
2023-03-12T05:11:45.404Z,97415.50
2023-03-12T05:14:11.988Z,97416.59
2023-03-12T05:16:38.593Z,97417.59
2023-03-12T05:19:05.551Z,97436.13
2023-03-12T05:21:32.061Z,97441.09
2023-03-12T05:23:58.722Z,97441.75
2023-03-12T05:26:32.934Z,97444.31
2023-03-12T05:29:01.637Z,97450.50
2023-03-12T05:31:28.205Z,97460.50
2023-03-12T05:33:55.997Z,97464.22
2023-03-12T05:36:23.620Z,97466.84
2023-03-12T05:38:51.600Z,97475.75
2023-03-12T05:41:22.284Z,97475.59
2023-03-12T05:43:50.254Z,97481.19
2023-03-12T05:46:17.309Z,97481.44
2023-03-12T05:48:43.917Z,97481.41
2023-03-12T05:51:10.381Z,97491.41
2023-03-12T05:53:36.880Z,97489.44
2023-03-12T05:56:06.121Z,97492.53
2023-03-12T05:58:33.437Z,97506.66
2023-03-12T06:01:00.192Z,97505.19
2023-03-12T06:03:26.761Z,97510.13
2023-03-12T06:05:55.281Z,97517.72
2023-03-12T06:08:24.687Z,97518.91
2023-03-12T06:10:53.298Z,97518.19
2023-03-12T06:13:19.757Z,97520.81
2023-03-12T06:15:46.193Z,97525.31
2023-03-12T06:18:12.684Z,97519.22
2023-03-12T06:20:39.181Z,97525.63
2023-03-12T06:23:05.638Z,97532.00
2023-03-12T06:25:32.929Z,97530.47
2023-03-12T06:28:02.400Z,97529.44
2023-03-12T06:30:30.089Z,97530.84
2023-03-12T06:32:56.556Z,97537.53
2023-03-12T06:35:23.145Z,97535.63
2023-03-12T06:37:49.608Z,97532.59
2023-03-12T06:40:16.187Z,97531.03
2023-03-12T06:42:42.772Z,97535.38
2023-03-12T06:45:09.425Z,97538.63
2023-03-12T06:47:35.857Z,97533.91
2023-03-12T06:50:02.363Z,97523.66
2023-03-12T06:52:30.138Z,97528.50
2023-03-12T06:54:56.593Z,97522.28
2023-03-12T06:57:23.055Z,97527.53
2023-03-12T06:59:50.717Z,97525.56
2023-03-12T07:02:17.916Z,97534.88
2023-03-12T07:04:44.489Z,97532.63
2023-03-12T07:07:11.998Z,97544.69
2023-03-12T07:09:39.712Z,97547.84
2023-03-12T07:12:06.357Z,97556.63
2023-03-12T07:14:32.843Z,97563.81
2023-03-12T07:17:03.120Z,97573.16
2023-03-12T07:19:32.948Z,97574.25
2023-03-12T07:22:00.600Z,97580.94
2023-03-12T07:24:27.080Z,97588.69
2023-03-12T07:26:54.800Z,97590.91
2023-03-12T07:29:21.902Z,97596.25
2023-03-12T07:31:48.474Z,97594.75
2023-03-12T07:34:15.084Z,97604.13
2023-03-12T07:36:41.687Z,97617.13
2023-03-12T07:39:10.117Z,97615.25
2023-03-12T07:41:38.984Z,97618.72
2023-03-12T07:44:06.973Z,97609.72
2023-03-12T07:46:33.780Z,97615.75
2023-03-12T07:49:00.944Z,97609.44
2023-03-12T07:51:27.407Z,97610.25
2023-03-12T07:53:53.915Z,97622.25
2023-03-12T07:56:20.761Z,97619.97
2023-03-12T07:58:47.398Z,97619.97
2023-03-12T08:01:14.037Z,97615.22
2023-03-12T08:03:40.666Z,97626.34
2023-03-12T08:06:07.635Z,97618.47
2023-03-12T08:08:36.178Z,97626.44
2023-03-12T08:11:05.422Z,97623.88
2023-03-12T08:13:31.895Z,97623.91
2023-03-12T08:15:58.473Z,97622.81
2023-03-12T08:18:25.294Z,97631.06
2023-03-12T08:20:52.735Z,97625.78
2023-03-12T08:23:19.533Z,97631.38
2023-03-12T08:25:47.434Z,97632.50
2023-03-12T08:28:14.917Z,97636.19
2023-03-12T08:30:45.633Z,97635.41
2023-03-12T08:33:12.084Z,97640.97
2023-03-12T08:35:38.598Z,97642.06
2023-03-12T08:38:06.321Z,97646.56
2023-03-12T08:40:34.500Z,97644.72
2023-03-12T08:43:02.543Z,97648.69
2023-03-12T08:45:30.245Z,97645.25
2023-03-12T08:47:56.803Z,97650.84
2023-03-12T11:58:40.328Z,97706.00
2023-03-12T12:01:18.253Z,97717.84
2023-03-12T12:03:59.776Z,97709.56
2023-03-12T12:06:57.442Z,97716.09
2023-03-12T12:09:30.284Z,97705.97
2023-03-12T12:12:12.531Z,97724.75
2023-03-12T12:15:02.427Z,97710.09
2023-03-12T12:17:50.036Z,97707.53
2023-03-12T12:20:26.794Z,97714.50
2023-03-12T12:23:23.293Z,97713.50
2023-03-12T12:25:57.512Z,97717.06
2023-03-12T12:28:36.422Z,97713.94
2023-03-12T12:31:40.578Z,97706.34
2023-03-12T12:34:26.264Z,97717.25
2023-03-12T12:37:20.680Z,97708.06
2023-03-12T12:40:18.858Z,97709.44
2023-03-12T12:43:21.892Z,97708.56
2023-03-12T12:45:51.316Z,97699.75
2023-03-12T12:48:23.811Z,97698.72
2023-03-12T12:50:52.962Z,97703.44
2023-03-12T12:53:43.359Z,97699.22
2023-03-12T12:56:29.054Z,97698.50
2023-03-12T12:59:32.736Z,97702.72
2023-03-12T13:02:02.165Z,97713.16
2023-03-12T13:04:35.176Z,97710.13
2023-03-12T13:07:12.435Z,97705.22
2023-03-12T13:09:50.506Z,97697.38
2023-03-12T13:12:22.323Z,97694.81
2023-03-12T13:14:50.221Z,97692.03
2023-03-12T13:17:20.485Z,97698.09
2023-03-12T13:20:00.963Z,97712.78
2023-03-12T13:22:46.691Z,97693.97
2023-03-12T13:25:34.009Z,97697.00
2023-03-12T13:28:35.977Z,97693.47
2023-03-12T13:31:22.382Z,97702.72
2023-03-12T13:33:53.548Z,97701.34
2023-03-12T13:36:29.174Z,97696.72
2023-03-12T13:39:17.570Z,97696.09
2023-03-12T13:41:47.170Z,97697.50
2023-03-12T13:44:25.215Z,97685.91
2023-03-12T13:47:10.653Z,97694.72
2023-03-12T13:49:44.964Z,97684.81
2023-03-12T13:52:14.516Z,97687.84
2023-03-12T13:54:45.541Z,97678.53
2023-03-12T13:57:32.136Z,97681.13
2023-03-12T14:00:00.178Z,97685.38
2023-03-12T14:02:36.940Z,97670.44
2023-03-12T14:05:08.174Z,97676.66
2023-03-12T14:07:57.785Z,97664.22
2023-03-12T14:11:02.833Z,97669.56
2023-03-12T14:13:32.665Z,97674.25
2023-03-12T14:16:05.737Z,97669.06
2023-03-12T14:18:35.821Z,97673.38
2023-03-12T14:21:07.826Z,97669.84
2023-03-12T14:23:48.673Z,97653.91
2023-03-12T14:26:21.376Z,97665.94
2023-03-12T14:28:55.873Z,97661.59
2023-03-12T14:31:24.273Z,97663.63
2023-03-12T14:33:57.266Z,97665.50
2023-03-12T14:36:28.455Z,97653.59
2023-03-12T14:39:10.903Z,97654.59
2023-03-12T14:41:45.202Z,97654.22
2023-03-12T14:44:27.378Z,97654.41
2023-03-12T14:47:00.356Z,97654.59
2023-03-12T14:49:28.292Z,97646.06
2023-03-12T14:51:55.693Z,97639.69
2023-03-12T14:54:25.445Z,97642.88
2023-03-12T14:56:52.293Z,97639.00
2023-03-12T14:59:26.081Z,97639.38
2023-03-12T15:02:10.383Z,97641.84
2023-03-12T15:04:38.125Z,97645.44
2023-03-12T15:07:09.687Z,97653.31
2023-03-12T15:09:37.220Z,97649.34
2023-03-12T15:12:17.906Z,97654.88
2023-03-12T15:14:44.973Z,97653.59
2023-03-12T15:17:20.334Z,97647.84
2023-03-12T15:19:48.713Z,97652.53
2023-03-12T15:22:18.380Z,97661.03
2023-03-12T15:24:45.435Z,97667.19
2023-03-12T15:27:23.805Z,97667.78
2023-03-12T15:29:51.065Z,97652.69
2023-03-12T15:32:20.732Z,97646.19
2023-03-12T15:34:48.117Z,97653.59
2023-03-12T15:37:39.019Z,97655.69
2023-03-12T15:40:19.839Z,97664.19
2023-03-12T15:42:48.833Z,97653.72
2023-03-12T15:45:21.853Z,97666.03
2023-03-12T15:47:49.704Z,97663.81
2023-03-12T15:50:24.081Z,97670.34
2023-03-12T15:53:05.987Z,97667.81
2023-03-12T15:55:36.011Z,97670.69
2023-03-12T15:58:03.985Z,97678.09
2023-03-12T16:00:43.978Z,97682.22
2023-03-12T16:03:19.089Z,97690.97
2023-03-12T16:05:46.504Z,97692.16
2023-03-12T16:08:15.890Z,97691.38
2023-03-12T16:10:42.582Z,97694.50
2023-03-12T16:13:14.329Z,97684.22
2023-03-12T16:15:41.162Z,97694.72
2023-03-12T16:18:18.797Z,97700.78
2023-03-12T16:20:46.415Z,97702.34
2023-03-12T16:23:13.504Z,97704.91
2023-03-12T16:25:44.174Z,97705.44
2023-03-12T16:28:14.115Z,97705.72
2023-03-12T16:30:41.208Z,97708.50
2023-03-12T16:33:09.433Z,97701.16
2023-03-12T16:35:36.590Z,97703.72
2023-03-12T16:38:04.056Z,97712.22
2023-03-12T16:40:34.266Z,97709.16
2023-03-12T16:43:04.850Z,97718.84
2023-03-12T16:45:34.973Z,97720.31
2023-03-12T16:48:05.259Z,97720.03
2023-03-12T16:50:32.566Z,97720.47
2023-03-12T16:52:59.757Z,97729.34
2023-03-12T16:55:29.608Z,97726.78
2023-03-12T16:58:01.418Z,97732.25
2023-03-12T17:00:30.921Z,97734.22
2023-03-12T17:02:59.155Z,97733.97
2023-03-12T17:05:28.319Z,97741.41
2023-03-12T17:07:55.697Z,97747.91
2023-03-12T17:10:23.155Z,97751.47
2023-03-12T17:12:51.253Z,97746.59
2023-03-12T17:15:26.265Z,97751.28
2023-03-12T17:17:55.617Z,97759.09
2023-03-12T17:20:24.826Z,97762.03
2023-03-12T17:22:51.801Z,97762.91
2023-03-12T17:25:23.028Z,97762.31
2023-03-12T17:27:50.170Z,97758.81
2023-03-12T17:30:17.610Z,97769.59
2023-03-12T17:32:44.794Z,97761.34
2023-03-12T17:35:11.809Z,97763.91
2023-03-12T17:37:39.133Z,97772.00
2023-03-12T17:40:08.117Z,97776.84
2023-03-12T17:42:35.652Z,97783.25
2023-03-12T17:45:03.545Z,97785.41
2023-03-12T17:47:31.087Z,97778.50
2023-03-12T17:49:57.998Z,97773.72
2023-03-12T17:52:25.092Z,97773.44
2023-03-12T17:54:52.031Z,97775.03
2023-03-12T17:57:18.744Z,97770.41
2023-03-12T17:59:45.746Z,97773.66
2023-03-12T18:02:14.690Z,97777.38
2023-03-12T18:04:41.338Z,97776.25
2023-03-12T18:07:08.562Z,97777.66
2023-03-12T18:09:35.501Z,97772.13
2023-03-12T18:12:02.416Z,97769.91
2023-03-12T18:14:30.085Z,97771.59
2023-03-12T18:16:57.113Z,97774.84
2023-03-12T18:19:23.767Z,97782.81
2023-03-12T18:21:50.445Z,97784.91
2023-03-12T18:24:17.071Z,97778.50
2023-03-12T18:26:45.260Z,97800.38
2023-03-12T18:29:12.896Z,97798.19
2023-03-12T18:31:39.531Z,97796.03
2023-03-12T18:34:06.185Z,97798.25
2023-03-12T18:36:33.256Z,97802.81
2023-03-12T18:39:04.977Z,97797.44
2023-03-12T18:41:33.502Z,97798.25
2023-03-12T18:44:00.828Z,97787.63
2023-03-12T18:46:28.292Z,97794.03
2023-03-12T18:48:55.419Z,97792.66
2023-03-12T18:51:22.125Z,97792.19
2023-03-12T18:53:48.758Z,97808.13
2023-03-12T18:56:15.676Z,97801.50
2023-03-12T18:58:42.402Z,97801.50
2023-03-12T19:01:08.988Z,97802.00
2023-03-12T19:03:36.724Z,97799.34
2023-03-12T19:06:11.777Z,97804.13
2023-03-12T19:08:39.850Z,97802.53
2023-03-12T19:11:08.424Z,97802.53
2023-03-12T19:13:36.207Z,97807.06
2023-03-12T19:16:08.767Z,97801.47
2023-03-12T19:18:37.040Z,97804.13
2023-03-12T19:21:04.738Z,97806.25
2023-03-12T19:23:31.340Z,97808.38
2023-03-12T19:25:57.937Z,97810.50
2023-03-12T19:28:24.811Z,97815.03
2023-03-12T19:30:51.440Z,97815.31
2023-03-12T19:33:18.178Z,97808.63
2023-03-12T19:35:44.909Z,97802.50
2023-03-12T19:38:11.552Z,97807.84
2023-03-12T19:40:38.157Z,97811.00
2023-03-12T19:43:04.925Z,97816.28
2023-03-12T19:45:31.549Z,97823.19
2023-03-12T19:47:58.256Z,97833.25
2023-03-12T19:50:25.128Z,97836.69
2023-03-12T19:52:51.821Z,97836.69
2023-03-12T19:55:18.572Z,97833.47
2023-03-12T19:57:45.628Z,97835.34
2023-03-12T20:00:13.144Z,97835.06
2023-03-12T20:02:39.963Z,97835.13
2023-03-12T20:05:07.955Z,97837.94
2023-03-12T20:07:35.288Z,97835.44
2023-03-12T20:10:01.982Z,97839.41
2023-03-12T20:12:28.635Z,97842.53
2023-03-12T20:14:55.294Z,97840.09
2023-03-12T20:17:21.945Z,97842.41
2023-03-12T20:19:48.797Z,97842.44
2023-03-12T20:22:15.590Z,97842.19
2023-03-12T20:24:42.317Z,97837.19
2023-03-12T20:27:08.999Z,97847.78
2023-03-12T20:29:35.638Z,97858.59
2023-03-12T20:32:02.391Z,97857.34
2023-03-12T20:34:29.036Z,97855.75
2023-03-12T20:36:55.706Z,97851.19
2023-03-12T20:39:22.438Z,97852.81
2023-03-12T20:41:49.744Z,97861.81
2023-03-12T20:44:16.963Z,97860.09
2023-03-12T20:46:43.637Z,97854.41
2023-03-12T20:49:10.329Z,97857.22
2023-03-12T20:51:36.999Z,97847.41
2023-03-12T20:54:03.675Z,97850.09
2023-03-12T20:56:30.373Z,97842.53
2023-03-12T20:58:57.360Z,97846.97
2023-03-12T21:01:24.014Z,97849.31
2023-03-12T21:03:50.984Z,97839.25
2023-03-12T21:06:17.618Z,97842.38
2023-03-12T21:08:44.237Z,97843.28
2023-03-12T21:11:10.952Z,97858.97
2023-03-12T21:13:38.209Z,97855.03
2023-03-12T21:16:07.218Z,97855.66
2023-03-12T21:18:34.107Z,97862.44
2023-03-12T21:21:05.645Z,97871.59
2023-03-12T21:23:33.944Z,97865.91
2023-03-12T21:26:03.667Z,97859.16
2023-03-12T21:28:31.427Z,97849.44
2023-03-12T21:31:12.201Z,97844.53
2023-03-12T21:33:39.330Z,97843.41
2023-03-12T21:36:11.371Z,97834.13
2023-03-12T21:38:39.501Z,97828.16
2023-03-12T21:41:11.685Z,97825.31
2023-03-12T21:43:39.399Z,97829.66
2023-03-12T21:46:08.145Z,97821.31
2023-03-12T21:48:35.403Z,97823.72
2023-03-12T21:51:07.701Z,97830.84
2023-03-12T21:53:34.935Z,97825.28
2023-03-12T21:56:03.053Z,97826.31
2023-03-12T21:58:31.850Z,97822.44
2023-03-12T22:01:09.725Z,97828.16
2023-03-12T22:03:36.789Z,97826.13
2023-03-12T22:06:04.877Z,97838.75
2023-03-12T22:08:32.236Z,97833.34
2023-03-12T22:10:59.566Z,97822.63
2023-03-12T22:13:26.421Z,97816.03
2023-03-12T22:15:55.252Z,97826.63
2023-03-12T22:18:22.970Z,97828.78
2023-03-12T22:20:57.897Z,97836.19
2023-03-12T22:23:24.694Z,97829.59
2023-03-12T22:25:51.321Z,97840.97
2023-03-12T22:28:18.980Z,97833.56
2023-03-12T22:30:45.660Z,97832.31
2023-03-12T22:33:12.750Z,97837.84
2023-03-12T22:35:46.574Z,97841.41
2023-03-12T22:38:13.637Z,97845.28
2023-03-12T22:40:41.359Z,97835.91
2023-03-12T22:43:08.281Z,97834.13
2023-03-12T22:45:35.972Z,97829.91
2023-03-12T22:48:03.038Z,97830.44
2023-03-12T22:50:29.783Z,97830.59
2023-03-12T22:52:56.485Z,97817.09
2023-03-12T22:55:23.284Z,97819.25
2023-03-12T22:57:50.092Z,97819.56
2023-03-12T23:00:22.886Z,97825.28
2023-03-12T23:02:50.163Z,97826.19
2023-03-12T23:05:17.282Z,97827.44
2023-03-12T23:07:44.411Z,97825.38
2023-03-12T23:10:11.559Z,97823.22
2023-03-12T23:12:39.086Z,97822.94
2023-03-12T23:15:06.674Z,97824.81
2023-03-12T23:17:33.599Z,97825.53
2023-03-12T23:20:00.203Z,97817.84
2023-03-12T23:22:26.850Z,97812.22
2023-03-12T23:24:53.454Z,97813.28
2023-03-12T23:27:20.096Z,97813.81
2023-03-12T23:29:46.744Z,97811.78
2023-03-12T23:32:13.402Z,97802.13
2023-03-12T23:34:40.037Z,97797.94
2023-03-12T23:37:07.234Z,97802.41
2023-03-12T23:39:44.990Z,97798.03
2023-03-12T23:42:18.943Z,97795.66
2023-03-12T23:44:46.765Z,97793.34
2023-03-12T23:47:13.773Z,97786.91
2023-03-12T23:49:40.363Z,97788.06
2023-03-12T23:52:07.052Z,97794.38
2023-03-12T23:54:33.932Z,97784.75
2023-03-12T23:57:00.526Z,97789.31
2023-03-12T23:59:27.247Z,97782.63
